createdAt,value
2019-03-31T00:02:23.896Z,100282.11
2019-03-31T00:06:28.638Z,100283.75
2019-03-31T00:10:33.438Z,100281.95
2019-03-31T00:14:38.165Z,100282.69
2019-03-31T00:18:42.919Z,100275.95
2019-03-31T00:22:47.735Z,100277.94
2019-03-31T00:26:52.991Z,100279.02
2019-03-31T00:30:57.746Z,100276.74
2019-03-31T00:35:02.591Z,100279.30
2019-03-31T00:39:08.992Z,100283.49
2019-03-31T00:43:14.043Z,100286.73
2019-03-31T00:47:18.789Z,100291.42
2019-03-31T00:51:23.731Z,100293.10
2019-03-31T00:55:28.491Z,100286.55
2019-03-31T00:59:33.211Z,100287.48
2019-03-31T01:03:38.048Z,100289.57
2019-03-31T01:07:42.801Z,100284.69
2019-03-31T01:11:48.691Z,100281.63
2019-03-31T01:15:55.460Z,100280.28
2019-03-31T01:20:00.384Z,100278.97
2019-03-31T01:24:05.221Z,100275.88
2019-03-31T01:28:10.291Z,100286.30
2019-03-31T01:32:15.112Z,100277.02
2019-03-31T01:36:19.908Z,100272.55
2019-03-31T01:40:24.769Z,100268.88
2019-03-31T01:44:29.481Z,100268.30
2019-03-31T01:48:34.398Z,100269.91
2019-03-31T01:52:39.169Z,100269.21
2019-03-31T01:56:44.977Z,100262.52
2019-03-31T02:00:54.156Z,100260.77
2019-03-31T02:04:59.083Z,100271.21
2019-03-31T02:09:05.584Z,100271.61
2019-03-31T02:13:10.626Z,100276.86
2019-03-31T02:17:15.527Z,100265.53
2019-03-31T02:21:20.618Z,100260.33
2019-03-31T02:25:25.745Z,100259.89
2019-03-31T02:29:30.473Z,100260.33
2019-03-31T02:33:35.365Z,100260.98
2019-03-31T02:37:40.151Z,100267.85
2019-03-31T02:41:44.889Z,100259.33
2019-03-31T02:45:49.592Z,100259.20
2019-03-31T02:49:54.427Z,100254.80
2019-03-31T02:53:59.386Z,100252.06
2019-03-31T02:58:05.859Z,100243.30
2019-03-31T03:02:11.233Z,100239.41
2019-03-31T03:06:18.392Z,100235.47
2019-03-31T03:10:24.495Z,100238.56
2019-03-31T03:14:30.795Z,100236.34
2019-03-31T03:18:35.537Z,100242.86
2019-03-31T03:22:40.447Z,100242.81
2019-03-31T03:26:45.314Z,100246.19
2019-03-31T03:30:50.231Z,100251.70
2019-03-31T03:34:55.124Z,100258.60
2019-03-31T03:38:59.822Z,100248.36
2019-03-31T03:43:04.573Z,100257.92
2019-03-31T03:47:09.352Z,100252.12
2019-03-31T03:51:14.216Z,100253.83
2019-03-31T03:55:18.965Z,100258.03
2019-03-31T03:59:23.711Z,100260.99
2019-03-31T04:03:30.929Z,100262.22
2019-03-31T04:07:35.541Z,100262.12
2019-03-31T04:11:40.265Z,100255.41
2019-03-31T04:15:45.140Z,100255.72
2019-03-31T04:19:49.854Z,100259.16
2019-03-31T04:23:54.768Z,100251.27
2019-03-31T04:27:59.557Z,100255.98
2019-03-31T04:32:04.425Z,100251.91
2019-03-31T04:36:09.603Z,100260.90
2019-03-31T04:40:14.364Z,100259.98
2019-03-31T04:44:19.102Z,100262.59
2019-03-31T04:48:23.881Z,100263.90
2019-03-31T04:52:28.617Z,100267.83
2019-03-31T04:56:33.337Z,100266.91
2019-03-31T05:00:38.309Z,100263.41
2019-03-31T05:04:43.060Z,100275.19
2019-03-31T05:08:47.868Z,100283.91
2019-03-31T05:12:52.618Z,100286.09
2019-03-31T05:16:57.422Z,100286.52
2019-03-31T05:21:02.189Z,100293.55
2019-03-31T05:25:07.283Z,100296.22
2019-03-31T05:29:11.989Z,100294.56
2019-03-31T05:33:16.807Z,100290.24
2019-03-31T05:37:21.816Z,100296.92
2019-03-31T05:41:26.588Z,100299.16
2019-03-31T05:45:31.395Z,100295.27
2019-03-31T05:49:36.178Z,100291.00
2019-03-31T05:53:41.416Z,100294.09
2019-03-31T05:57:46.162Z,100295.98
2019-03-31T06:01:50.926Z,100303.09
2019-03-31T06:05:55.676Z,100304.14
2019-03-31T06:10:00.402Z,100310.47
2019-03-31T06:14:05.617Z,100311.13
2019-03-31T06:18:10.439Z,100307.89
2019-03-31T06:22:15.263Z,100311.20
2019-03-31T06:26:20.070Z,100318.08
2019-03-31T06:30:24.877Z,100311.77
2019-03-31T06:34:30.593Z,100313.36
2019-03-31T06:38:35.342Z,100310.25
2019-03-31T06:42:40.114Z,100306.98
2019-03-31T06:46:45.131Z,100299.84
2019-03-31T06:50:49.856Z,100306.72
2019-03-31T06:54:54.809Z,100303.09
2019-03-31T06:58:59.901Z,100304.23
2019-03-31T07:03:04.996Z,100302.78
2019-03-31T07:07:11.742Z,100306.19
2019-03-31T07:11:17.366Z,100306.11
2019-03-31T07:15:22.953Z,100309.95
2019-03-31T07:19:28.829Z,100315.59
2019-03-31T07:23:33.698Z,100310.22
2019-03-31T07:27:38.894Z,100309.66
2019-03-31T07:31:43.656Z,100310.84
2019-03-31T07:35:48.849Z,100306.28
2019-03-31T07:39:55.704Z,100308.70
2019-03-31T07:44:02.126Z,100308.91
2019-03-31T07:48:08.227Z,100308.67
2019-03-31T07:52:13.155Z,100314.58
2019-03-31T07:56:18.708Z,100299.48
2019-03-31T08:00:25.298Z,100299.48
2019-03-31T08:04:31.519Z,100299.59
2019-03-31T08:08:36.582Z,100291.80
2019-03-31T08:12:42.653Z,100297.16
2019-03-31T08:16:47.350Z,100298.06
2019-03-31T08:20:53.623Z,100299.00
2019-03-31T08:25:00.151Z,100299.05
2019-03-31T08:29:06.557Z,100297.77
2019-03-31T08:33:11.362Z,100296.50
2019-03-31T08:37:16.558Z,100296.95
2019-03-31T08:41:21.321Z,100301.36
2019-03-31T08:45:30.318Z,100299.58
2019-03-31T08:49:33.449Z,100296.06
2019-03-31T08:53:38.637Z,100292.94
2019-03-31T08:57:43.305Z,100296.46
2019-03-31T09:01:48.509Z,100297.75
2019-03-31T09:06:01.827Z,100294.62
2019-03-31T09:10:00.354Z,100287.08
2019-03-31T09:14:06.482Z,100287.05
2019-03-31T09:18:11.349Z,100283.88
2019-03-31T09:22:16.124Z,100286.85
2019-03-31T09:26:21.102Z,100287.23
2019-03-31T09:30:25.826Z,100276.14
2019-03-31T09:34:31.421Z,100275.56
2019-03-31T09:38:36.724Z,100268.81
2019-03-31T09:42:41.488Z,100262.95
2019-03-31T09:46:46.248Z,100265.09
2019-03-31T09:50:51.394Z,100263.63
2019-03-31T09:54:56.293Z,100255.95
2019-03-31T09:59:01.411Z,100254.49
2019-03-31T10:03:07.874Z,100247.28
2019-03-31T10:07:12.660Z,100253.41
2019-03-31T10:11:20.844Z,100248.00
2019-03-31T10:15:26.074Z,100247.52
2019-03-31T10:19:31.204Z,100248.76
2019-03-31T10:23:36.010Z,100243.64
2019-03-31T10:27:40.757Z,100237.27
2019-03-31T10:31:46.256Z,100236.15
2019-03-31T10:35:51.009Z,100220.46
2019-03-31T10:39:55.743Z,100227.48
2019-03-31T10:44:00.499Z,100217.63
2019-03-31T10:48:19.229Z,100213.13
2019-03-31T10:52:12.023Z,100210.26
2019-03-31T10:56:16.932Z,100203.03
2019-03-31T11:00:38.023Z,100203.80
2019-03-31T11:04:42.758Z,100193.80
2019-03-31T11:08:47.911Z,100191.37
2019-03-31T11:12:52.964Z,100189.22
2019-03-31T11:16:57.720Z,100188.28
2019-03-31T11:21:07.728Z,100181.98
2019-03-31T11:25:20.783Z,100182.09
2019-03-31T11:29:19.245Z,100181.89
2019-03-31T11:33:23.996Z,100176.42
2019-03-31T11:37:29.097Z,100171.84
2019-03-31T11:41:33.873Z,100175.11
2019-03-31T11:45:38.727Z,100163.41
2019-03-31T11:49:43.679Z,100161.05
2019-03-31T11:53:48.468Z,100154.50
2019-03-31T11:57:53.283Z,100141.38
2019-03-31T12:01:58.131Z,100137.55
2019-03-31T12:06:03.063Z,100139.11
2019-03-31T12:10:08.762Z,100125.99
2019-03-31T12:14:13.602Z,100113.74
2019-03-31T12:18:18.776Z,100122.21
2019-03-31T12:22:23.706Z,100112.27
2019-03-31T12:26:28.653Z,100109.41
2019-03-31T12:30:33.449Z,100104.98
2019-03-31T12:34:38.262Z,100103.53
2019-03-31T12:38:44.360Z,100102.78
2019-03-31T12:42:49.231Z,100095.31
2019-03-31T12:46:56.106Z,100093.16
2019-03-31T12:51:01.497Z,100094.99
2019-03-31T12:55:06.877Z,100088.10
2019-03-31T12:59:11.715Z,100085.06
2019-03-31T13:03:16.677Z,100078.89
2019-03-31T13:07:21.585Z,100078.94
2019-03-31T13:11:26.298Z,100074.53
2019-03-31T13:15:33.162Z,100068.55
2019-03-31T13:19:38.027Z,100070.94
2019-03-31T13:23:42.782Z,100056.70
2019-03-31T13:27:48.933Z,100053.22
2019-03-31T13:31:53.686Z,100045.96
2019-03-31T13:35:58.462Z,100048.34
2019-03-31T13:40:03.207Z,100044.89
2019-03-31T13:44:07.945Z,100043.83
2019-03-31T13:48:14.604Z,100034.88
2019-03-31T13:52:20.361Z,100035.35
2019-03-31T13:56:25.219Z,100039.39
2019-03-31T14:00:41.191Z,100042.09
2019-03-31T14:04:51.728Z,100031.86
2019-03-31T14:08:55.064Z,100037.16
2019-03-31T14:13:00.272Z,100030.05
2019-03-31T14:17:05.072Z,100023.27
2019-03-31T14:21:10.155Z,100024.67
2019-03-31T14:25:14.940Z,100026.52
2019-03-31T14:29:19.756Z,100015.85
2019-03-31T14:33:24.985Z,100013.53
2019-03-31T14:37:30.058Z,100009.93
2019-03-31T14:41:35.241Z,100011.54
2019-03-31T14:45:40.521Z,100006.59
2019-03-31T14:49:46.298Z,100001.38
2019-03-31T14:53:53.414Z,99994.03
2019-03-31T14:57:58.653Z,99993.25
2019-03-31T15:02:03.466Z,100001.17
2019-03-31T15:06:08.439Z,99999.84
2019-03-31T15:10:13.231Z,99995.45
2019-03-31T15:14:18.266Z,99992.70
2019-03-31T15:18:23.471Z,99990.94
2019-03-31T15:22:29.566Z,99994.19
2019-03-31T15:26:34.329Z,99987.91
2019-03-31T15:30:39.348Z,99988.70
2019-03-31T15:34:44.184Z,99991.36
2019-03-31T15:38:48.989Z,99995.95
2019-03-31T15:42:53.806Z,99987.95
2019-03-31T15:46:58.770Z,99991.09
2019-03-31T15:51:03.471Z,99987.20
2019-03-31T15:55:08.801Z,99983.64
2019-03-31T15:59:13.578Z,99983.70
2019-03-31T16:03:18.580Z,99976.14
2019-03-31T16:07:23.486Z,99978.02
2019-03-31T16:11:27.703Z,99975.31
2019-03-31T16:15:32.218Z,99981.19
2019-03-31T16:19:36.903Z,99974.05
2019-03-31T16:23:41.105Z,99980.69
2019-03-31T16:27:45.493Z,99977.19
2019-03-31T16:31:49.775Z,99979.03
2019-03-31T16:35:55.176Z,99976.02
2019-03-31T16:39:59.400Z,99981.85
2019-03-31T16:44:04.016Z,99979.69
2019-03-31T16:48:08.761Z,99980.70
2019-03-31T16:52:12.954Z,99983.02
2019-03-31T16:56:19.199Z,99981.40
2019-03-31T17:00:25.751Z,99984.28
2019-03-31T17:04:30.404Z,99983.63
2019-03-31T17:08:36.029Z,99981.17
2019-03-31T17:12:40.245Z,99981.85
2019-03-31T17:16:44.457Z,99985.75
2019-03-31T17:20:50.934Z,99985.52
2019-03-31T17:24:56.724Z,99977.70
2019-03-31T17:29:03.100Z,99985.35
2019-03-31T17:33:07.281Z,99994.86
2019-03-31T17:37:11.864Z,99989.27
2019-03-31T17:41:16.124Z,99986.33
2019-03-31T17:45:20.354Z,99999.29
2019-03-31T17:49:26.567Z,100004.77
2019-03-31T17:53:30.817Z,100006.36
2019-03-31T17:57:35.161Z,100015.06
2019-03-31T18:01:39.329Z,100019.83
2019-03-31T18:05:43.539Z,100028.50
2019-03-31T18:09:47.790Z,100030.47
2019-03-31T18:13:51.990Z,100033.25
2019-03-31T18:17:56.292Z,100045.44
2019-03-31T18:22:00.511Z,100049.97
2019-03-31T18:26:07.535Z,100050.14
2019-03-31T18:30:14.168Z,100052.02
2019-03-31T18:34:18.466Z,100049.88
2019-03-31T18:38:23.444Z,100060.20
2019-03-31T18:42:28.265Z,100059.03
2019-03-31T18:46:33.663Z,100063.53
2019-03-31T18:50:38.631Z,100063.16
2019-03-31T18:55:03.694Z,100067.16
2019-03-31T18:59:26.876Z,100074.73
2019-03-31T19:03:50.131Z,100073.08
2019-03-31T19:08:17.017Z,100074.92
2019-03-31T19:12:39.578Z,100077.20
2019-03-31T19:17:09.568Z,100081.68
2019-03-31T19:21:24.280Z,100079.52
2019-03-31T19:25:54.054Z,100080.44
2019-03-31T19:30:20.818Z,100088.47
2019-03-31T19:34:38.114Z,100091.63
2019-03-31T19:39:03.685Z,100092.62
2019-03-31T19:43:27.183Z,100098.45
2019-03-31T19:47:53.242Z,100105.19
2019-03-31T19:52:15.500Z,100114.97
2019-03-31T19:56:42.115Z,100116.34
2019-03-31T20:01:12.719Z,100128.34
2019-03-31T20:05:28.076Z,100126.62
2019-03-31T20:09:44.556Z,100132.03
2019-03-31T20:14:07.914Z,100133.46
2019-03-31T20:18:49.812Z,100136.61
2019-03-31T20:23:17.033Z,100138.89
2019-03-31T20:27:46.631Z,100150.44
2019-03-31T20:32:22.522Z,100147.36
2019-03-31T20:36:47.219Z,100154.49
2019-03-31T20:41:03.612Z,100162.92
2019-03-31T20:45:08.268Z,100169.12
2019-03-31T20:49:13.612Z,100167.40
2019-03-31T20:53:18.243Z,100173.61
2019-03-31T20:57:23.908Z,100175.38
2019-03-31T21:01:29.336Z,100180.69
2019-03-31T21:05:36.108Z,100189.97
2019-03-31T21:09:45.137Z,100184.27
2019-03-31T21:13:47.208Z,100195.77
2019-03-31T21:17:51.975Z,100198.43
2019-03-31T21:21:56.199Z,100204.64
2019-03-31T21:26:00.929Z,100209.48
2019-03-31T21:30:06.034Z,100219.66
2019-03-31T21:34:10.284Z,100223.19
2019-03-31T21:38:14.740Z,100220.58
2019-03-31T21:42:19.074Z,100225.88
2019-03-31T21:46:23.259Z,100228.56
2019-03-31T21:50:27.519Z,100234.72
2019-03-31T21:54:31.797Z,100235.63
2019-03-31T21:58:36.036Z,100237.41
2019-03-31T22:02:40.316Z,100238.27
2019-03-31T22:06:44.671Z,100248.44
2019-03-31T22:10:48.896Z,100252.41
2019-03-31T22:14:53.122Z,100257.27
2019-03-31T22:18:57.324Z,100254.63
2019-03-31T22:23:01.623Z,100255.97
2019-03-31T22:27:05.866Z,100255.97
2019-03-31T22:31:10.140Z,100259.92
2019-03-31T22:35:14.471Z,100260.82
2019-03-31T22:39:18.651Z,100260.81
2019-03-31T22:43:22.894Z,100260.38
2019-03-31T22:47:27.183Z,100263.03
2019-03-31T22:51:32.568Z,100261.22
2019-03-31T22:55:36.801Z,100269.59
2019-03-31T22:59:41.587Z,100273.53
2019-03-31T23:03:45.796Z,100281.45
2019-03-31T23:07:50.071Z,100283.66
2019-03-31T23:11:54.483Z,100277.92
2019-03-31T23:15:59.024Z,100276.15
2019-03-31T23:20:03.338Z,100284.05
2019-03-31T23:24:08.679Z,100279.19
2019-03-31T23:28:12.993Z,100283.12
2019-03-31T23:32:17.764Z,100294.12
2019-03-31T23:36:22.888Z,100290.59
2019-03-31T23:40:27.516Z,100299.39
2019-03-31T23:44:31.823Z,100305.55
2019-03-31T23:48:36.226Z,100303.77
2019-03-31T23:52:41.329Z,100300.68
2019-03-31T23:56:45.567Z,100299.33
